Terminal Aerodrome Forecast
Issued by NWS Charleston, WV

Home | Current Version | Previous Version | Text Only | Print | Product List | Glossary On
Versions: 1 2 3 4 5 6 7 8 9 10 11 12 13 14 15 16 17 18 19 20 21 22 23 24
000
FTUS41 KRLX 231737
TAFCRW
TAF
KCRW 231737Z 2318/2418 15011G22KT P6SM +SHRA OVC060
      TEMPO 2318/2320 3SM +SHRA
     FM232000 19009G15KT 6SM -SHRA OVC040
      TEMPO 2320/2322 3SM +SHRA OVC025
     FM232200 20008KT P6SM OVC035
     FM240100 22009KT 6SM BR OVC025
     FM240500 24008KT 6SM BR OVC015
     FM241200 20006KT P6SM BKN025
     FM241600 23012G18KT P6SM OVC040=

USA.gov is the U.S. government's official web portal to all federal, state and local government web resources and services.